createdAt,value
2018-01-15T00:00:49.523Z,1012.59
2018-01-15T00:01:49.530Z,1012.59
2018-01-15T00:02:49.539Z,1012.58
2018-01-15T00:03:49.551Z,1012.57
2018-01-15T00:04:49.560Z,1012.56
2018-01-15T00:05:49.571Z,1012.56
2018-01-15T00:06:49.578Z,1012.51
2018-01-15T00:07:49.587Z,1012.54
2018-01-15T00:08:49.599Z,1012.54
2018-01-15T00:09:49.610Z,1012.53
2018-01-15T00:10:49.618Z,1012.49
2018-01-15T00:11:49.627Z,1012.48
2018-01-15T00:12:49.638Z,1012.43
2018-01-15T00:13:49.648Z,1012.39
2018-01-15T00:14:49.657Z,1012.36
2018-01-15T00:15:49.671Z,1012.34
2018-01-15T00:16:49.677Z,1012.33
2018-01-15T00:17:49.689Z,1012.35
2018-01-15T00:18:49.701Z,1012.34
2018-01-15T00:19:49.710Z,1012.35
2018-01-15T00:20:49.719Z,1012.34
2018-01-15T00:21:49.878Z,1012.34
2018-01-15T00:22:49.735Z,1012.33
2018-01-15T00:23:49.747Z,1012.33
2018-01-15T00:24:49.778Z,1012.34
2018-01-15T00:25:49.766Z,1012.29
2018-01-15T00:26:49.777Z,1012.24
2018-01-15T00:27:49.786Z,1012.22
2018-01-15T00:28:49.796Z,1012.21
2018-01-15T00:29:49.807Z,1012.17
2018-01-15T00:30:49.817Z,1012.17
2018-01-15T00:31:49.836Z,1012.16
2018-01-15T00:32:49.848Z,1012.12
2018-01-15T00:33:50.001Z,1012.18
2018-01-15T00:34:49.858Z,1012.09
2018-01-15T00:35:49.867Z,1012.10
2018-01-15T00:36:49.879Z,1012.04
2018-01-15T00:37:49.892Z,1012.02
2018-01-15T00:38:49.899Z,1012.05
2018-01-15T00:39:49.907Z,1011.97
2018-01-15T00:40:49.916Z,1011.96
2018-01-15T00:41:49.927Z,1011.93
2018-01-15T00:42:49.934Z,1011.92
2018-01-15T00:43:49.954Z,1011.93
2018-01-15T00:44:50.763Z,1011.93
2018-01-15T00:45:49.983Z,1011.93
2018-01-15T00:46:49.976Z,1011.92
2018-01-15T00:47:49.987Z,1011.92
2018-01-15T00:48:49.995Z,1011.93
2018-01-15T00:49:50.013Z,1011.88
2018-01-15T00:50:50.015Z,1011.88
2018-01-15T00:51:50.029Z,1011.85
2018-01-15T00:52:50.044Z,1011.84
2018-01-15T00:53:50.045Z,1011.85
2018-01-15T00:54:50.059Z,1011.78
2018-01-15T00:55:50.065Z,1011.82
2018-01-15T00:56:50.076Z,1011.84
2018-01-15T00:57:50.084Z,1011.84
2018-01-15T00:58:50.246Z,1011.90
2018-01-15T00:59:50.105Z,1011.87
2018-01-15T01:00:50.140Z,1011.85
2018-01-15T01:01:50.126Z,1011.87
2018-01-15T01:02:50.135Z,1011.84
2018-01-15T01:03:50.149Z,1011.82
2018-01-15T01:04:50.154Z,1011.84
2018-01-15T01:05:50.166Z,1011.85
2018-01-15T01:06:50.176Z,1011.84
2018-01-15T01:07:50.188Z,1011.82
2018-01-15T01:08:50.200Z,1011.78
2018-01-15T01:09:50.212Z,1011.77
2018-01-15T01:10:50.309Z,1011.74
2018-01-15T01:11:50.232Z,1011.76
2018-01-15T01:12:50.241Z,1011.76
2018-01-15T01:13:50.245Z,1011.78
2018-01-15T01:14:50.512Z,1011.74
2018-01-15T01:15:51.261Z,1011.75
2018-01-15T01:16:50.276Z,1011.73
2018-01-15T01:17:50.426Z,1011.75
2018-01-15T01:19:50.860Z,1011.75
2018-01-15T01:20:50.573Z,1011.70
2018-01-15T01:21:50.327Z,1011.67
2018-01-15T01:22:50.375Z,1011.63
2018-01-15T01:23:50.355Z,1011.62
2018-01-15T01:24:50.360Z,1011.59
2018-01-15T01:25:50.370Z,1011.56
2018-01-15T01:26:50.378Z,1011.54
2018-01-15T01:27:50.392Z,1011.51
2018-01-15T01:28:50.396Z,1011.49
2018-01-15T01:29:50.410Z,1011.49
2018-01-15T01:30:50.452Z,1011.43
2018-01-15T01:31:50.439Z,1011.40
2018-01-15T01:32:50.437Z,1011.45
2018-01-15T01:33:50.449Z,1011.41
2018-01-15T01:34:50.457Z,1011.44
2018-01-15T01:35:50.538Z,1011.42
2018-01-15T01:36:50.478Z,1011.45
2018-01-15T01:37:50.500Z,1011.42
2018-01-15T01:38:50.498Z,1011.47
2018-01-15T01:39:50.511Z,1011.47
2018-01-15T01:40:50.521Z,1011.43
2018-01-15T01:41:50.531Z,1011.43
2018-01-15T01:42:50.540Z,1011.45
2018-01-15T01:43:50.548Z,1011.41
2018-01-15T01:44:50.709Z,1011.39
2018-01-15T01:45:50.570Z,1011.33
2018-01-15T01:46:50.581Z,1011.34
2018-01-15T01:47:50.590Z,1011.30
2018-01-15T01:48:50.599Z,1011.29
2018-01-15T01:49:50.615Z,1011.30
2018-01-15T01:50:50.619Z,1011.28
2018-01-15T01:51:50.630Z,1011.28
2018-01-15T01:52:50.793Z,1011.31
2018-01-15T01:53:50.665Z,1011.28
2018-01-15T01:54:50.660Z,1011.30
2018-01-15T01:55:50.671Z,1011.26
2018-01-15T01:56:50.686Z,1011.25
2018-01-15T01:57:50.692Z,1011.23
2018-01-15T01:58:50.705Z,1011.23
2018-01-15T01:59:50.711Z,1011.21
2018-01-15T02:00:50.722Z,1011.21
2018-01-15T02:01:50.733Z,1011.18
2018-01-15T02:02:50.746Z,1011.12
2018-01-15T02:03:50.757Z,1011.12
2018-01-15T02:04:50.765Z,1011.05
2018-01-15T02:05:50.773Z,1011.05
2018-01-15T02:06:50.783Z,1011.07
2018-01-15T02:07:50.843Z,1011.02
2018-01-15T02:08:50.803Z,1010.97
2018-01-15T02:09:50.823Z,1010.95
2018-01-15T02:10:50.824Z,1010.95
2018-01-15T02:11:50.832Z,1010.99
2018-01-15T02:12:50.847Z,1010.96
2018-01-15T02:13:50.855Z,1010.92
2018-01-15T02:14:50.865Z,1010.90
2018-01-15T02:15:50.883Z,1010.96
2018-01-15T02:16:50.898Z,1010.87
2018-01-15T02:17:50.903Z,1010.86
2018-01-15T02:18:50.905Z,1010.87
2018-01-15T02:19:50.919Z,1010.84
2018-01-15T02:20:50.925Z,1010.80
2018-01-15T02:21:50.968Z,1010.80
2018-01-15T02:22:50.945Z,1010.79
2018-01-15T02:23:50.959Z,1010.77
2018-01-15T02:24:50.966Z,1010.81
2018-01-15T02:25:50.975Z,1010.78
2018-01-15T02:26:51.038Z,1010.80
2018-01-15T02:27:51.004Z,1010.80
2018-01-15T02:28:51.009Z,1010.80
2018-01-15T02:29:51.021Z,1010.75
2018-01-15T02:30:51.027Z,1010.76
2018-01-15T02:31:51.038Z,1010.71
2018-01-15T02:32:51.048Z,1010.70
2018-01-15T02:33:51.066Z,1010.70
2018-01-15T02:35:51.078Z,1010.69
2018-01-15T02:36:51.092Z,1010.69
2018-01-15T02:37:51.100Z,1010.60
2018-01-15T02:38:51.109Z,1010.62
2018-01-15T02:39:51.119Z,1010.56
2018-01-15T02:40:51.130Z,1010.56
2018-01-15T02:41:51.140Z,1010.52
2018-01-15T02:42:51.152Z,1010.49
2018-01-15T02:43:51.411Z,1010.49
2018-01-15T02:44:51.170Z,1010.50
2018-01-15T02:45:51.182Z,1010.51
2018-01-15T02:46:51.191Z,1010.52
2018-01-15T02:47:51.200Z,1010.53
2018-01-15T02:48:51.212Z,1010.47
2018-01-15T02:49:51.222Z,1010.49
2018-01-15T02:50:51.238Z,1010.50
2018-01-15T02:51:51.242Z,1010.43
2018-01-15T02:52:51.258Z,1010.47
2018-01-15T02:53:51.271Z,1010.44
2018-01-15T02:54:51.275Z,1010.44
2018-01-15T02:55:51.285Z,1010.44
2018-01-15T02:56:51.296Z,1010.41
2018-01-15T02:57:51.311Z,1010.39
2018-01-15T02:58:51.316Z,1010.36
2018-01-15T02:59:51.475Z,1010.37
2018-01-15T03:00:51.340Z,1010.39
2018-01-15T03:01:51.349Z,1010.39
2018-01-15T03:02:51.354Z,1010.37
2018-01-15T03:03:51.362Z,1010.34
2018-01-15T03:04:51.379Z,1010.34
2018-01-15T03:05:51.386Z,1010.31
2018-01-15T03:06:51.397Z,1010.30
2018-01-15T03:07:51.407Z,1010.25
2018-01-15T03:08:51.419Z,1010.24
2018-01-15T03:09:51.428Z,1010.23
2018-01-15T03:10:51.435Z,1010.19
2018-01-15T03:11:51.697Z,1010.18
2018-01-15T03:12:51.460Z,1010.14
2018-01-15T03:13:51.621Z,1010.12
2018-01-15T03:14:51.481Z,1010.09
2018-01-15T03:15:51.490Z,1010.05
2018-01-15T03:16:51.502Z,1010.05
2018-01-15T03:17:51.512Z,1010.04
2018-01-15T03:18:51.519Z,1009.97
2018-01-15T03:19:51.781Z,1009.96
2018-01-15T03:20:51.544Z,1009.95
2018-01-15T03:21:51.553Z,1009.91
2018-01-15T03:22:51.570Z,1009.91
2018-01-15T03:23:51.572Z,1009.88
2018-01-15T03:24:51.584Z,1009.84
2018-01-15T03:25:51.596Z,1009.82
2018-01-15T03:26:51.608Z,1009.78
2018-01-15T03:27:51.766Z,1009.85
2018-01-15T03:28:51.626Z,1009.77
2018-01-15T03:29:51.637Z,1009.70
2018-01-15T03:30:51.648Z,1009.73
2018-01-15T03:31:51.659Z,1009.73
2018-01-15T03:32:51.668Z,1009.70
2018-01-15T03:33:51.676Z,1009.67
2018-01-15T03:34:51.684Z,1009.65
2018-01-15T03:35:51.697Z,1009.69
2018-01-15T03:36:51.707Z,1009.68
2018-01-15T03:37:51.867Z,1009.67
2018-01-15T03:38:51.728Z,1009.64
2018-01-15T03:39:51.739Z,1009.57
2018-01-15T03:40:51.748Z,1009.56
2018-01-15T03:41:51.763Z,1009.49
2018-01-15T03:42:51.767Z,1009.43
2018-01-15T03:43:51.782Z,1009.42
2018-01-15T03:44:51.789Z,1009.43
2018-01-15T03:45:51.801Z,1009.44
2018-01-15T03:46:51.808Z,1009.42
2018-01-15T03:47:51.820Z,1009.44
2018-01-15T03:48:51.981Z,1009.46
2018-01-15T03:49:51.848Z,1009.45
2018-01-15T03:50:51.854Z,1009.52
2018-01-15T03:51:51.862Z,1009.49
2018-01-15T03:52:51.873Z,1009.43
2018-01-15T03:53:51.890Z,1009.45
2018-01-15T03:54:51.894Z,1009.43
2018-01-15T03:55:51.904Z,1009.35
2018-01-15T03:56:51.912Z,1009.31
2018-01-15T03:57:51.926Z,1009.29
2018-01-15T03:58:51.934Z,1009.29
2018-01-15T03:59:51.946Z,1009.27
2018-01-15T04:00:51.955Z,1009.24
2018-01-15T04:01:51.965Z,1009.20
2018-01-15T04:02:51.973Z,1009.15
2018-01-15T04:03:51.985Z,1009.13
2018-01-15T04:04:51.993Z,1009.13
2018-01-15T04:05:52.007Z,1009.10
2018-01-15T04:06:52.017Z,1009.08
2018-01-15T04:07:52.025Z,1009.03
2018-01-15T04:08:52.035Z,1008.99
2018-01-15T04:09:52.370Z,1008.91
2018-01-15T04:10:52.056Z,1008.88
2018-01-15T04:11:52.068Z,1008.89
2018-01-15T04:12:52.076Z,1008.94
2018-01-15T04:13:52.091Z,1008.94
2018-01-15T04:14:52.097Z,1008.93
2018-01-15T04:15:52.106Z,1008.90
2018-01-15T04:16:52.117Z,1008.86
2018-01-15T04:17:52.127Z,1008.88
2018-01-15T04:18:52.137Z,1008.87
2018-01-15T04:19:52.149Z,1008.83
2018-01-15T04:20:52.163Z,1008.86
2018-01-15T04:21:52.171Z,1008.82
2018-01-15T04:22:52.178Z,1008.82
2018-01-15T04:23:52.194Z,1008.78
2018-01-15T04:24:52.200Z,1008.72
2018-01-15T04:25:52.211Z,1008.77
2018-01-15T04:26:52.221Z,1008.68
2018-01-15T04:27:52.228Z,1008.68
2018-01-15T04:28:52.239Z,1008.64
2018-01-15T04:29:52.251Z,1008.63
2018-01-15T04:30:52.259Z,1008.61
2018-01-15T04:31:52.270Z,1008.63
2018-01-15T04:32:52.282Z,1008.60
2018-01-15T04:33:52.292Z,1008.61
2018-01-15T04:34:52.451Z,1008.64
2018-01-15T04:35:52.313Z,1008.59
2018-01-15T04:36:52.321Z,1008.52
2018-01-15T04:37:52.333Z,1008.52
2018-01-15T04:38:52.342Z,1008.58
2018-01-15T04:39:52.355Z,1008.47
2018-01-15T04:40:52.366Z,1008.43
2018-01-15T04:41:52.374Z,1008.47
2018-01-15T04:42:52.391Z,1008.44
2018-01-15T04:43:52.395Z,1008.43
2018-01-15T04:44:52.403Z,1008.41
2018-01-15T04:45:52.416Z,1008.41
2018-01-15T04:46:52.428Z,1008.42
2018-01-15T04:47:52.435Z,1008.43
2018-01-15T04:48:52.445Z,1008.38
2018-01-15T04:49:52.466Z,1008.38
2018-01-15T04:50:52.467Z,1008.35
2018-01-15T04:51:52.490Z,1008.33
2018-01-15T04:52:52.486Z,1008.31
2018-01-15T04:53:52.497Z,1008.30
2018-01-15T04:54:52.505Z,1008.28
2018-01-15T04:55:52.519Z,1008.25
2018-01-15T04:56:52.529Z,1008.20
2018-01-15T04:57:52.538Z,1008.16
2018-01-15T04:58:52.548Z,1008.16
2018-01-15T04:59:52.559Z,1008.12
2018-01-15T05:00:52.567Z,1008.15
2018-01-15T05:01:52.581Z,1008.10
2018-01-15T05:02:52.590Z,1008.14
2018-01-15T05:03:52.600Z,1008.10
2018-01-15T05:04:52.611Z,1008.11
2018-01-15T05:05:52.621Z,1008.05
2018-01-15T05:06:52.631Z,1008.13
2018-01-15T05:07:52.642Z,1008.09
2018-01-15T05:08:52.702Z,1008.06
2018-01-15T05:09:52.662Z,1008.04
2018-01-15T05:10:52.673Z,1008.03
2018-01-15T05:11:52.682Z,1007.99
2018-01-15T05:12:52.693Z,1007.99
2018-01-15T05:13:52.705Z,1008.00
2018-01-15T05:14:52.713Z,1007.91
2018-01-15T05:15:52.726Z,1007.95
2018-01-15T05:16:52.742Z,1007.93
2018-01-15T05:17:52.744Z,1007.96
2018-01-15T05:18:52.759Z,1007.96
2018-01-15T05:19:52.764Z,1007.92
2018-01-15T05:20:52.777Z,1007.91
2018-01-15T05:21:52.788Z,1007.89
2018-01-15T05:22:52.798Z,1007.82
2018-01-15T05:23:52.809Z,1007.81
2018-01-15T05:24:52.821Z,1007.80
2018-01-15T05:25:52.835Z,1007.76
2018-01-15T05:26:52.838Z,1007.76
2018-01-15T05:27:52.848Z,1007.75
2018-01-15T05:28:52.861Z,1007.79
2018-01-15T05:29:52.872Z,1007.76
2018-01-15T05:30:52.884Z,1007.71
2018-01-15T05:31:52.948Z,1007.71
2018-01-15T05:32:52.902Z,1007.72
2018-01-15T05:33:52.916Z,1007.66
2018-01-15T05:34:52.924Z,1007.69
2018-01-15T05:35:52.933Z,1007.68
2018-01-15T05:36:52.947Z,1007.66
2018-01-15T05:37:52.955Z,1007.61
2018-01-15T05:38:52.972Z,1007.61
2018-01-15T05:39:52.981Z,1007.61
2018-01-15T05:40:52.989Z,1007.59
2018-01-15T05:41:52.997Z,1007.53
2018-01-15T05:42:53.008Z,1007.58
2018-01-15T05:43:53.018Z,1007.56
2018-01-15T05:44:53.022Z,1007.55
2018-01-15T05:45:53.035Z,1007.55
2018-01-15T05:46:53.044Z,1007.55
2018-01-15T05:47:53.085Z,1007.48
2018-01-15T05:48:53.063Z,1007.51
2018-01-15T05:49:53.075Z,1007.48
2018-01-15T05:50:53.085Z,1007.44
2018-01-15T05:51:53.098Z,1007.44
2018-01-15T05:52:53.105Z,1007.48
2018-01-15T05:53:53.266Z,1007.43
2018-01-15T05:54:53.129Z,1007.42
2018-01-15T05:55:53.137Z,1007.43
2018-01-15T05:56:53.154Z,1007.43
2018-01-15T05:57:53.159Z,1007.39
2018-01-15T05:58:53.167Z,1007.45
2018-01-15T05:59:53.195Z,1007.35
2018-01-15T06:00:53.188Z,1007.32
2018-01-15T06:01:53.201Z,1007.31
2018-01-15T06:02:53.211Z,1007.31
2018-01-15T06:03:53.399Z,1007.31
2018-01-15T06:04:53.232Z,1007.30
2018-01-15T06:05:53.246Z,1007.28
2018-01-15T06:06:53.253Z,1007.27
2018-01-15T06:07:53.264Z,1007.24
2018-01-15T06:08:53.285Z,1007.22
2018-01-15T06:09:53.286Z,1007.27
2018-01-15T06:10:53.297Z,1007.26
2018-01-15T06:11:53.310Z,1007.25
2018-01-15T06:12:53.317Z,1007.19
2018-01-15T06:13:53.328Z,1007.23
2018-01-15T06:14:53.341Z,1007.16
2018-01-15T06:15:53.357Z,1007.17
2018-01-15T06:16:53.361Z,1007.17
2018-01-15T06:17:53.383Z,1007.15
2018-01-15T06:18:53.385Z,1007.12
2018-01-15T06:19:53.395Z,1007.09
2018-01-15T06:20:53.404Z,1007.09
2018-01-15T06:21:53.424Z,1007.05
2018-01-15T06:22:53.425Z,1007.03
2018-01-15T06:23:53.437Z,1007.03
2018-01-15T06:24:53.463Z,1007.04
2018-01-15T06:25:53.468Z,1006.99
2018-01-15T06:26:53.477Z,1006.98
2018-01-15T06:27:53.478Z,1006.98
2018-01-15T06:28:53.492Z,1006.95
2018-01-15T06:29:53.517Z,1006.94
2018-01-15T06:30:53.510Z,1006.93
2018-01-15T06:31:53.521Z,1006.95
2018-01-15T06:32:53.538Z,1006.89
2018-01-15T06:33:53.543Z,1006.92
2018-01-15T06:34:53.554Z,1006.91
2018-01-15T06:35:53.570Z,1006.89
2018-01-15T06:36:53.577Z,1006.90
2018-01-15T06:37:53.588Z,1006.89
2018-01-15T06:38:53.602Z,1006.83
2018-01-15T06:39:53.612Z,1006.79
2018-01-15T06:40:53.626Z,1006.74
2018-01-15T06:41:53.784Z,1006.70
2018-01-15T06:42:53.641Z,1006.72
2018-01-15T06:43:53.655Z,1006.68
2018-01-15T06:44:53.663Z,1006.69
2018-01-15T06:45:53.678Z,1006.71
2018-01-15T06:46:53.686Z,1006.71
2018-01-15T06:47:53.696Z,1006.65
2018-01-15T06:48:53.856Z,1006.63
2018-01-15T06:49:53.869Z,1006.62
2018-01-15T06:50:53.728Z,1006.63
2018-01-15T06:51:53.744Z,1006.60
2018-01-15T06:52:53.752Z,1006.61
2018-01-15T06:53:53.770Z,1006.58
2018-01-15T06:54:53.777Z,1006.58
2018-01-15T06:55:53.783Z,1006.59
2018-01-15T06:56:53.796Z,1006.57
2018-01-15T06:57:53.811Z,1006.57
2018-01-15T06:58:53.817Z,1006.53
2018-01-15T06:59:53.828Z,1006.53
2018-01-15T07:00:53.838Z,1006.52
2018-01-15T07:01:53.856Z,1006.48
2018-01-15T07:02:53.884Z,1006.47
2018-01-15T07:03:53.871Z,1006.49
2018-01-15T07:04:53.881Z,1006.51
2018-01-15T07:05:53.894Z,1006.47
2018-01-15T07:06:53.909Z,1006.45
2018-01-15T07:07:53.921Z,1006.41
2018-01-15T07:08:53.952Z,1006.40
2018-01-15T07:09:53.938Z,1006.32
2018-01-15T07:10:53.947Z,1006.32
2018-01-15T07:11:53.959Z,1006.25
2018-01-15T07:12:54.070Z,1006.21
2018-01-15T07:13:53.982Z,1006.18
2018-01-15T07:14:53.991Z,1006.21
2018-01-15T07:15:54.007Z,1006.19
2018-01-15T07:16:54.018Z,1006.18
2018-01-15T07:17:54.031Z,1006.15
2018-01-15T07:18:54.036Z,1006.10
2018-01-15T07:19:54.049Z,1006.11
2018-01-15T07:20:54.208Z,1006.12
2018-01-15T07:21:54.068Z,1006.16
2018-01-15T07:22:54.080Z,1006.10
2018-01-15T07:23:54.094Z,1006.13
2018-01-15T07:24:54.103Z,1006.12
2018-01-15T07:25:54.113Z,1006.09
2018-01-15T07:26:54.125Z,1006.09
2018-01-15T07:27:54.145Z,1006.17
2018-01-15T07:28:54.146Z,1006.13
2018-01-15T07:29:54.157Z,1006.13
2018-01-15T07:30:54.172Z,1006.14
2018-01-15T07:31:54.179Z,1006.10
2018-01-15T07:32:54.189Z,1006.10
2018-01-15T07:33:54.202Z,1006.12
2018-01-15T07:34:54.210Z,1006.13
2018-01-15T07:35:54.223Z,1006.10
2018-01-15T07:36:54.234Z,1006.06
2018-01-15T07:37:54.246Z,1006.05
2018-01-15T07:38:54.266Z,1006.03
2018-01-15T07:39:54.273Z,1005.96
2018-01-15T07:40:54.279Z,1005.95
2018-01-15T07:41:54.297Z,1005.94
2018-01-15T07:42:54.301Z,1005.88
2018-01-15T07:43:54.312Z,1005.85
2018-01-15T07:44:54.322Z,1005.89
2018-01-15T07:45:54.334Z,1005.90
2018-01-15T07:46:54.346Z,1005.88
2018-01-15T07:47:54.355Z,1005.89
2018-01-15T07:48:54.367Z,1005.85
2018-01-15T07:49:54.382Z,1005.85
2018-01-15T07:50:54.400Z,1005.83
2018-01-15T07:51:54.401Z,1005.79
2018-01-15T07:52:54.412Z,1005.76
2018-01-15T07:53:54.675Z,1005.78
2018-01-15T07:54:54.440Z,1005.77
2018-01-15T07:55:54.447Z,1005.76
2018-01-15T07:56:54.463Z,1005.71
2018-01-15T07:57:54.473Z,1005.70
2018-01-15T07:58:54.504Z,1005.66
2018-01-15T07:59:54.489Z,1005.68
2018-01-15T08:00:54.500Z,1005.70
2018-01-15T08:01:54.515Z,1005.70
2018-01-15T08:02:54.522Z,1005.68
2018-01-15T08:03:54.535Z,1005.65
2018-01-15T08:04:54.546Z,1005.64
2018-01-15T08:05:54.559Z,1005.63
2018-01-15T08:06:54.583Z,1005.56
2018-01-15T08:07:54.584Z,1005.55
2018-01-15T08:08:54.590Z,1005.49
2018-01-15T08:09:54.767Z,1005.43
2018-01-15T08:10:54.611Z,1005.49
2018-01-15T08:11:54.621Z,1005.40
2018-01-15T08:12:54.633Z,1005.40
2018-01-15T08:13:54.677Z,1005.33
2018-01-15T08:14:54.655Z,1005.36
2018-01-15T08:15:54.667Z,1005.39
2018-01-15T08:16:54.681Z,1005.36
2018-01-15T08:17:54.690Z,1005.40
2018-01-15T08:18:54.988Z,1005.33
2018-01-15T08:19:54.713Z,1005.36
2018-01-15T08:20:54.725Z,1005.34
2018-01-15T08:21:55.021Z,1005.32
2018-01-15T08:22:54.747Z,1005.29
2018-01-15T08:23:54.756Z,1005.20
2018-01-15T08:24:54.768Z,1005.21
2018-01-15T08:25:54.784Z,1005.17
2018-01-15T08:26:54.794Z,1005.15
2018-01-15T08:27:54.802Z,1005.18
2018-01-15T08:28:54.816Z,1005.11
2018-01-15T08:29:54.826Z,1005.09
2018-01-15T08:31:54.890Z,1005.08
2018-01-15T08:32:54.889Z,1005.04
2018-01-15T08:33:54.882Z,1005.03
2018-01-15T08:34:54.883Z,1005.01
2018-01-15T08:35:54.894Z,1005.05
2018-01-15T08:36:54.910Z,1005.10
2018-01-15T08:37:54.918Z,1005.09
2018-01-15T08:38:54.931Z,1005.03
2018-01-15T08:39:54.943Z,1005.05
2018-01-15T08:40:54.964Z,1005.03
2018-01-15T08:41:54.975Z,1005.07
2018-01-15T08:42:54.976Z,1005.03
2018-01-15T08:43:54.989Z,1005.03
2018-01-15T08:44:55.097Z,1005.06
2018-01-15T08:45:55.013Z,1005.03
2018-01-15T08:46:55.017Z,1005.06
2018-01-15T08:47:55.032Z,1004.99
2018-01-15T08:48:55.058Z,1005.00
2018-01-15T08:49:55.054Z,1004.97
2018-01-15T08:50:55.066Z,1004.94
2018-01-15T08:51:55.080Z,1004.93
2018-01-15T08:52:55.088Z,1004.90
2018-01-15T08:53:55.101Z,1004.89
2018-01-15T08:54:55.263Z,1004.92
2018-01-15T08:55:55.122Z,1004.88
2018-01-15T08:56:55.135Z,1004.86
2018-01-15T08:57:55.270Z,1004.81
2018-01-15T08:58:55.166Z,1004.78
2018-01-15T08:59:55.176Z,1004.77
2018-01-15T09:00:55.213Z,1004.76
2018-01-15T09:01:55.191Z,1004.65
2018-01-15T09:02:55.204Z,1004.70
2018-01-15T09:03:55.216Z,1004.64
2018-01-15T09:04:55.245Z,1004.59
2018-01-15T09:05:55.270Z,1004.62
2018-01-15T09:06:55.243Z,1004.55
2018-01-15T09:07:55.323Z,1004.59
2018-01-15T09:08:55.269Z,1004.57
2018-01-15T09:09:55.455Z,1004.52
2018-01-15T09:10:55.304Z,1004.52
2018-01-15T09:11:55.309Z,1004.51
2018-01-15T09:12:55.465Z,1004.51
2018-01-15T09:13:55.328Z,1004.45
2018-01-15T09:14:55.403Z,1004.47
2018-01-15T09:15:55.350Z,1004.45
2018-01-15T09:16:55.512Z,1004.45
2018-01-15T09:17:55.385Z,1004.47
2018-01-15T09:18:55.388Z,1004.48
2018-01-15T09:19:55.397Z,1004.48
2018-01-15T09:20:55.559Z,1004.46
2018-01-15T09:21:55.481Z,1004.43
2018-01-15T09:22:55.432Z,1004.45
2018-01-15T09:23:55.456Z,1004.42
2018-01-15T09:24:55.459Z,1004.41
2018-01-15T09:25:55.467Z,1004.41
2018-01-15T09:26:55.482Z,1004.37
2018-01-15T09:27:55.489Z,1004.37
2018-01-15T09:28:55.503Z,1004.36
2018-01-15T09:29:55.515Z,1004.40
2018-01-15T09:30:55.531Z,1004.36
2018-01-15T09:31:55.541Z,1004.37
2018-01-15T09:32:55.550Z,1004.32
2018-01-15T09:33:55.578Z,1004.31
2018-01-15T09:34:55.590Z,1004.27
2018-01-15T09:35:55.602Z,1004.27
2018-01-15T09:36:55.597Z,1004.23
2018-01-15T09:37:55.608Z,1004.21
2018-01-15T09:38:55.621Z,1004.19
2018-01-15T09:40:55.646Z,1004.19
2018-01-15T09:41:55.663Z,1004.17
2018-01-15T09:42:55.669Z,1004.13
2018-01-15T09:43:55.696Z,1004.08
2018-01-15T09:44:55.702Z,1004.02
2018-01-15T09:45:55.706Z,1004.04
2018-01-15T09:46:55.722Z,1003.98
2018-01-15T09:47:55.730Z,1003.96
2018-01-15T09:48:55.754Z,1004.00
2018-01-15T09:49:55.756Z,1003.94
2018-01-15T09:50:55.803Z,1003.93
2018-01-15T09:51:55.787Z,1003.92
2018-01-15T09:52:55.792Z,1003.83
2018-01-15T09:53:55.803Z,1003.87
2018-01-15T09:54:55.816Z,1003.84
2018-01-15T09:55:55.831Z,1003.88
2018-01-15T09:56:55.840Z,1003.85
2018-01-15T09:57:55.850Z,1003.87
2018-01-15T09:58:55.866Z,1003.86
2018-01-15T09:59:55.893Z,1003.84
2018-01-15T10:00:55.889Z,1003.79
2018-01-15T10:01:55.902Z,1003.81
2018-01-15T10:02:55.916Z,1003.82
2018-01-15T10:03:55.925Z,1003.77
2018-01-15T10:04:55.936Z,1003.80
2018-01-15T10:05:55.951Z,1003.76
2018-01-15T10:06:55.971Z,1003.82
2018-01-15T10:07:55.973Z,1003.80
2018-01-15T10:08:55.987Z,1003.76
2018-01-15T10:09:56.033Z,1003.80
2018-01-15T10:10:56.126Z,1003.77
2018-01-15T10:11:56.031Z,1003.76
2018-01-15T10:12:56.038Z,1003.73
2018-01-15T10:13:56.049Z,1003.71
2018-01-15T10:14:56.066Z,1003.68
2018-01-15T10:15:56.083Z,1003.61
2018-01-15T10:16:56.086Z,1003.59
2018-01-15T10:17:56.117Z,1003.60
2018-01-15T10:18:56.138Z,1003.53
2018-01-15T10:19:56.121Z,1003.55
2018-01-15T10:20:56.135Z,1003.53
2018-01-15T10:21:56.151Z,1003.52
2018-01-15T10:22:56.161Z,1003.48
2018-01-15T10:23:56.184Z,1003.43
2018-01-15T10:24:56.183Z,1003.41
2018-01-15T10:25:56.197Z,1003.39
2018-01-15T10:26:56.212Z,1003.39
2018-01-15T10:27:56.222Z,1003.38
2018-01-15T10:28:56.242Z,1003.40
2018-01-15T10:29:56.248Z,1003.34
2018-01-15T10:30:56.262Z,1003.30
2018-01-15T10:31:56.277Z,1003.30
2018-01-15T10:32:56.283Z,1003.30
2018-01-15T10:33:56.298Z,1003.27
2018-01-15T10:34:56.309Z,1003.17
2018-01-15T10:35:56.320Z,1003.22
2018-01-15T10:36:56.399Z,1003.17
2018-01-15T10:37:56.353Z,1003.17
2018-01-15T10:38:56.554Z,1003.13
2018-01-15T10:39:56.379Z,1003.12
2018-01-15T10:40:56.388Z,1003.10
2018-01-15T10:41:56.403Z,1003.08
2018-01-15T10:42:56.409Z,1003.02
2018-01-15T10:43:56.829Z,1003.02
2018-01-15T10:44:56.446Z,1002.98
2018-01-15T10:45:56.451Z,1002.94
2018-01-15T10:46:56.458Z,1002.89
2018-01-15T10:47:56.476Z,1002.86
2018-01-15T10:48:56.490Z,1002.83
2018-01-15T10:49:56.498Z,1002.81
2018-01-15T10:50:56.510Z,1002.82
2018-01-15T10:51:56.523Z,1002.72
2018-01-15T10:52:56.535Z,1002.65
2018-01-15T10:53:56.550Z,1002.67
2018-01-15T10:54:56.558Z,1002.65
2018-01-15T10:55:56.571Z,1002.62
2018-01-15T10:56:56.583Z,1002.61
2018-01-15T10:57:56.598Z,1002.51
2018-01-15T10:58:56.611Z,1002.52
2018-01-15T10:59:56.626Z,1002.45
2018-01-15T11:00:56.633Z,1002.46
2018-01-15T11:01:56.646Z,1002.40
2018-01-15T11:02:56.816Z,1002.31
2018-01-15T11:03:56.671Z,1002.32
2018-01-15T11:04:56.683Z,1002.23
2018-01-15T11:05:56.699Z,1002.22
2018-01-15T11:06:56.708Z,1002.22
2018-01-15T11:07:56.721Z,1002.22
2018-01-15T11:08:56.734Z,1002.18
2018-01-15T11:09:56.747Z,1002.12
2018-01-15T11:10:56.760Z,1002.09
2018-01-15T11:11:56.780Z,1002.09
2018-01-15T11:12:56.816Z,1002.07
2018-01-15T11:13:56.965Z,1002.06
2018-01-15T11:14:56.810Z,1001.99
2018-01-15T11:15:56.854Z,1001.97
2018-01-15T11:16:56.840Z,1001.97
2018-01-15T11:17:56.853Z,1001.96
2018-01-15T11:18:56.861Z,1001.85
2018-01-15T11:19:56.893Z,1001.87
2018-01-15T11:20:56.886Z,1001.86
2018-01-15T11:21:57.051Z,1001.79
2018-01-15T11:22:56.917Z,1001.83
2018-01-15T11:23:56.932Z,1001.80
2018-01-15T11:24:56.941Z,1001.74
2018-01-15T11:25:56.953Z,1001.68
2018-01-15T11:26:56.964Z,1001.62
2018-01-15T11:27:56.979Z,1001.65
2018-01-15T11:28:56.992Z,1001.60
2018-01-15T11:29:57.004Z,1001.60
2018-01-15T11:30:57.017Z,1001.59
2018-01-15T11:31:57.028Z,1001.54
2018-01-15T11:32:57.046Z,1001.48
2018-01-15T11:33:57.053Z,1001.46
2018-01-15T11:34:57.069Z,1001.43
2018-01-15T11:35:57.081Z,1001.37
2018-01-15T11:36:57.095Z,1001.38
2018-01-15T11:37:57.111Z,1001.26
2018-01-15T11:38:57.120Z,1001.26
2018-01-15T11:39:57.133Z,1001.28
2018-01-15T11:40:57.147Z,1001.14
2018-01-15T11:41:57.161Z,1001.11
2018-01-15T11:42:57.172Z,1001.09
2018-01-15T11:43:57.184Z,1001.07
2018-01-15T11:44:57.197Z,1001.09
2018-01-15T11:45:57.209Z,1000.99
2018-01-15T11:46:57.384Z,1000.98
2018-01-15T11:47:57.242Z,1000.93
2018-01-15T11:48:57.254Z,1000.87
2018-01-15T11:49:57.269Z,1000.84
2018-01-15T11:50:57.276Z,1000.83
2018-01-15T11:51:57.288Z,1000.78
2018-01-15T11:52:57.454Z,1000.76
2018-01-15T11:53:57.315Z,1000.69
2018-01-15T11:54:57.331Z,1000.57
2018-01-15T11:55:57.343Z,1000.61
2018-01-15T11:56:57.355Z,1000.60
2018-01-15T11:57:57.384Z,1000.57
2018-01-15T11:58:57.385Z,1000.50
2018-01-15T11:59:57.498Z,1000.46
2018-01-15T12:00:57.421Z,1000.45
2018-01-15T12:01:57.425Z,1000.46
2018-01-15T12:02:57.530Z,1000.58
2018-01-15T12:03:57.448Z,1000.43
2018-01-15T12:05:57.865Z,1000.40
2018-01-15T12:06:57.578Z,1000.40
2018-01-15T12:07:57.507Z,1000.34
2018-01-15T12:09:58.174Z,1000.26
2018-01-15T12:10:57.555Z,1000.25
2018-01-15T12:11:57.621Z,1000.19